• Join FlightAware (Why Join?)
  • Login
  • US Flag 
09:50PM EST


 

Airport Tracker/Info


-or-


 

Live Flight TrackerFlight Track Log ✈ N415JA ✈ 24-Oct-2013 ✈ KFXE - KCLT

Flight Track Log - Related Links

Times and Time Zones

All times are in EDT time to prevent confusion due to time zone crossing. See the N415JA flight status page for this flight to view local times or setup timezone preferences in your user account.

Time Position Orientation Groundspeed Altitude Reporting Facility
EDT Latitude Longitude Course Direction KTS MPH feet Rate Location/Type
10:28AM 26.1975 -80.1633 51° Northeast 156 180 300  Level Miami Center
10:29AM 26.2192 -80.1336 51° Northeast 196 226 2,200 2,880 Climbing Miami Center
10:30AM 26.2786 -80.1769 327° Northwest 243 280 5,600 2,820 Climbing Miami Center
10:31AM 26.3219 -80.2061 329° Northwest 258 297 7,500 2,700 Climbing Miami Center
10:32AM 26.3836 -80.2519 326° Northwest 279 321 10,300 2,520 Climbing Miami Center
10:33AM 26.4622 -80.2819 341° North 279 321 12,600 2,460 Climbing Miami Center
10:34AM 26.5389 -80.3097 342° North 291 335 15,300 2,160 Climbing Miami Center
10:35AM 26.6194 -80.3400 341° North 286 329 17,000 1,500 Climbing Miami Center
10:36AM 26.7064 -80.3706 343° North 310 357 18,300 1,140 Climbing Miami Center
10:37AM 26.7789 -80.3983 341° North 328 377 19,300 1,140 Climbing Miami Center
10:38AM 26.8867 -80.4386 342° North 344 396 20,600 1,200 Climbing Miami Center
10:39AM 26.9900 -80.4744 343° North 370 426 21,800 1,200 Climbing Miami Center
10:40AM 27.0487 -80.4939 343° North  Level FlightAware Approximate
10:40AM 27.0933 -80.5150 341° North 383 441 23,100  Level Miami Center
10:41AM 27.1947 -80.5508 343° North 383 441 24,400 1,200 Climbing Miami Center
10:42AM 27.3025 -80.5894 342° North 388 447 25,600 1,200 Climbing Miami Center
10:43AM 27.4058 -80.6278 342° North 388 447 26,900 1,080 Climbing Miami Center
10:44AM 27.5092 -80.6664 342° North 388 447 28,100 1,080 Climbing Miami Center
10:45AM 27.6144 -80.7075 341° North 388 447 29,300 1,260 Climbing Miami Center
10:46AM 27.7386 -80.7539 342° North 388 447 30,700 1,200 Climbing Miami Center
10:47AM 27.8481 -80.7950 342° North 388 447 31,700 4,140 Climbing Miami Center
10:48AM 27.9639 -80.8367 342° North 394 453 39,000 720 Climbing Miami Center
10:49AM 28.0608 -80.8731 342° North 401 461 33,200 -2,580 Descending Miami Center
10:50AM 28.1703 -80.9144 342° North 401 461 33,900 600 Climbing Miami Center
10:51AM 28.2797 -80.9539 342° North 407 468 34,500 600 Climbing Miami Center
10:52AM 28.3933 -80.9958 342° North 407 468 35,100 600 Climbing Miami Center
10:53AM 28.5006 -81.0375 341° North 414 476 35,800 660 Climbing Miami Center
10:54AM 28.6297 -81.0833 343° North 422 486 36,500 600 Climbing Jacksonville Center
10:55AM 28.7283 -81.1239 340° North 410 472 37,100 600 Climbing Jacksonville Center
10:56AM 28.8392 -81.1506 348° North 404 465 37,800 600 Climbing Jacksonville Center
10:57AM 28.9503 -81.1769 348° North 404 465 38,400 540 Climbing Jacksonville Center
10:58AM 29.0614 -81.2036 348° North 399 459 38,900 300 Climbing Jacksonville Center
10:59AM 29.1703 -81.2303 348° North 394 453 39,000  Climbing Jacksonville Center
11:00AM 29.2811 -81.2547 349° North 394 453 39,000  Level Jacksonville Center
11:01AM 29.3961 -81.2789 350° North 399 459 39,000  Level Jacksonville Center
11:02AM 29.5031 -81.3106 346° North 406 467 39,000  Level Jacksonville Center
11:03AM 29.6161 -81.3375 348° North 406 467 39,000  Level Jacksonville Center
11:04AM 29.7292 -81.3642 348° North 406 467 39,000  Level Jacksonville Center
11:05AM 29.8422 -81.3911 348° North 411 473 39,000  Level Jacksonville Center
11:06AM 29.9531 -81.4183 348° North 411 473 39,000  Level Jacksonville Center
11:07AM 30.0683 -81.4453 349° North 411 473 39,000  Level Jacksonville Center
11:08AM 30.1833 -81.4725 348° North 411 473 39,000  Level Jacksonville Center
11:09AM 30.3069 -81.5042 348° North 411 473 39,000  Level Jacksonville Center
11:10AM 30.4219 -81.5050 360° North 425 489 39,000  Level Jacksonville Center
11:11AM 30.5492 -81.4936 North 443 510 39,000  Level Jacksonville Center
11:12AM 30.6722 -81.4844 North 448 516 39,000  Level Jacksonville Center
11:13AM 30.8014 -81.4728 North 448 516 39,000  Level Jacksonville Center
11:14AM 30.9267 -81.4661 North 453 521 39,000  Level Jacksonville Center
11:15AM 31.0539 -81.4544 North 453 521 39,000  Level Jacksonville Center
11:16AM 31.1811 -81.4453 North 453 521 39,000  Level Jacksonville Center
11:17AM 31.3081 -81.4142 12° North 458 527 39,000  Level Jacksonville Center
11:18AM 31.4431 -81.3389 25° Northeast 478 550 39,000  Level Jacksonville Center
11:19AM 31.5694 -81.2711 25° Northeast 489 563 39,000  Level Jacksonville Center
11:20AM 31.6939 -81.2078 23° Northeast 489 563 39,000  Level Jacksonville Center
11:21AM 31.8081 -81.1494 23° Northeast 489 563 39,000  Level Jacksonville Center
11:22AM 31.9489 -81.0783 23° Northeast 500 575 39,000  Level Jacksonville Center
11:23AM 32.0628 -81.0147 25° Northeast 498 573 39,000  Level Jacksonville Center
11:24AM 32.2039 -80.9481 22° Northeast 498 573 39,000  Level Jacksonville Center
11:25AM 32.3281 -80.8839 24° Northeast 487 560 39,000  Level Jacksonville Center
11:26AM 32.4503 -80.8197 24° Northeast 473 544 39,000  Level Jacksonville Center
11:27AM 32.5744 -80.7553 24° Northeast 478 550 39,000  Level Jacksonville Center
11:28AM 32.6986 -80.6881 24° Northeast 478 550 39,000  Level Jacksonville Center
11:29AM 32.8225 -80.6233 24° Northeast 478 550 39,000  Level Jacksonville Center
11:30AM 32.9219 -80.5714 24° Northeast 478 550 39,000 -720 Level Jacksonville Center
11:31AM 33.0583 -80.5008 23° Northeast 478 550 37,600 -2,220 Descending Jacksonville Center
11:32AM 33.1886 -80.4353 23° Northeast 483 556 34,600 -3,000 Descending Jacksonville Center
11:33AM 33.3164 -80.3622 26° Northeast 495 570 31,700 -2,760 Descending Jacksonville Center
11:34AM 33.4361 -80.2967 25° Northeast 489 563 29,100 -2,520 Descending Jacksonville Center
11:35AM 33.5517 -80.2358 24° Northeast 467 537 26,700 -2,400 Descending Jacksonville Center
11:36AM 33.6653 -80.1750 24° Northeast 446 513 24,400 -1,860 Descending Jacksonville Center
11:37AM 33.7703 -80.1069 28° Northeast 433 498 23,000 -900 Descending Jacksonville Center
11:38AM 33.8789 -80.0283 31° Northeast 433 498 22,700 -840 Descending Jacksonville Center
11:39AM 33.9883 -79.9672 25° Northeast 428 493 21,400 -1,440 Descending Jacksonville Center
11:40AM 34.1006 -79.9508 North 409 471 19,900 -1,440 Descending Jacksonville Center
11:41AM 34.1992 -79.9778 347° North 367 422 18,600 -1,200 Descending Jacksonville Center
11:42AM 34.2756 -80.0278 332° Northwest 329 379 17,600 -1,080 Descending Jacksonville Center
11:43AM 34.3453 -80.0733 332° Northwest 310 357 16,500 -1,080 Descending Jacksonville Center
11:44AM 34.4131 -80.1164 332° Northwest 287 330 15,500 -1,020 Descending Jacksonville Center
11:45AM 34.4808 -80.1622 331° Northwest 281 323 14,500 -960 Descending Jacksonville Center
11:46AM 34.5483 -80.2053 332° Northwest 276 318 13,600 -1,020 Descending Jacksonville Center
11:47AM 34.6294 -80.2647 329° Northwest 270 311 12,300 -1,020 Descending Atlanta Center
11:49AM 34.6942 -80.3328 319° Northwest 245 282 11,200 -900 Descending Atlanta Center
11:50AM 34.7375 -80.3864 315° West 236 272 10,500 -840 Descending Atlanta Center
11:51AM 34.7808 -80.4425 313° West 225 259 9,600 -960 Descending Atlanta Center
11:52AM 34.8206 -80.5142 304° West 224 258 8,500 -1,080 Descending Atlanta Center
11:53AM 34.8478 -80.5867 295° West 226 260 7,300 -1,080 Descending Atlanta Center
11:54AM 34.8764 -80.6486 299° West 231 266 6,400 -780 Descending Atlanta Center
11:55AM 34.9136 -80.7053 309° West 214 246 5,800 -960 Descending Atlanta Center
11:56AM 34.9486 -80.7700 303° West 206 237 4,500 -900 Descending Atlanta Center
11:57AM 34.9794 -80.8269 303° West 208 239 4,000 -300 Descending Atlanta Center
11:58AM 35.0161 -80.8764 312° West 198 228 3,900 -360 Descending Atlanta Center
11:59AM 35.0586 -80.9103 327° Northwest 190 219 3,400 -540 Descending Atlanta Center
12:00PM 35.1050 -80.9286 342° North 177 204 2,900 -840 Descending Atlanta Center
12:01PM 35.1594 -80.9342 355° North 169 194 1,600 -1,200 Descending Atlanta Center
12:03PM 35.2000 -80.9333 90° East  Level FlightAware Approximate
12:10PM 35.2137 -80.9491 90° East  Level Estimated